Time;durP1;ratioP1;P1;durP2;ratioP2;P2;SDS_P1;SDS_P2;PMS_P1;PMS_P2;Temp;Humidity;BMP_temperature;BMP_pressure;BME280_temperature;BME280_humidity;BME280_pressure;Samples;Min_cycle;Max_cycle;Signal;HPM_P1;HPM_P2
2021/09/28 00:02:12;;;;;;;14.25;4.35;;;12.40;93.40;;;;;;5013184;28;20144;-73
2021/09/28 00:04:38;;;;;;;15.43;5.65;;;12.40;93.40;;;;;;5011577;28;20430;-75
2021/09/28 00:07:04;;;;;;;15.32;4.13;;;12.40;93.40;;;;;;5012977;28;20041;-74
2021/09/28 00:09:29;;;;;;;15.30;4.78;;;12.30;93.40;;;;;;5012865;28;20029;-74
2021/09/28 00:11:55;;;;;;;11.68;4.60;;;12.30;93.50;;;;;;5012366;28;20423;-75
2021/09/28 00:14:21;;;;;;;11.02;4.78;;;12.30;93.50;;;;;;5012852;28;20386;-74
2021/09/28 00:16:47;;;;;;;11.88;4.85;;;12.30;93.40;;;;;;5012642;28;20467;-74
2021/09/28 00:19:13;;;;;;;17.35;5.30;;;12.30;93.50;;;;;;5012420;28;20037;-74
2021/09/28 00:21:39;;;;;;;11.88;5.03;;;12.30;93.50;;;;;;5012321;28;20478;-73
2021/09/28 00:24:05;;;;;;;10.73;5.10;;;12.30;93.50;;;;;;5012760;28;20521;-75
2021/09/28 00:26:31;;;;;;;15.27;5.13;;;12.20;93.40;;;;;;5012987;28;20034;-74
2021/09/28 00:28:56;;;;;;;12.98;5.53;;;12.20;93.40;;;;;;5012684;28;20085;-75
2021/09/28 00:31:22;;;;;;;14.93;4.80;;;12.20;93.40;;;;;;5011427;28;20034;-74
2021/09/28 00:33:47;;;;;;;14.43;4.82;;;12.20;93.40;;;;;;5011322;28;20026;-75
2021/09/28 00:36:13;;;;;;;14.48;4.95;;;12.20;93.40;;;;;;5012560;28;20471;-74
2021/09/28 00:38:39;;;;;;;14.32;4.55;;;12.10;93.30;;;;;;5012277;28;20228;-74
2021/09/28 00:41:05;;;;;;;12.52;5.55;;;12.20;93.70;;;;;;5012660;28;20041;-74
2021/09/28 00:43:54;;;;;;;17.25;5.53;;;12.20;93.40;;;;;;5016168;28;20018;-74
2021/09/28 00:46:21;;;;;;;14.85;5.35;;;12.20;93.40;;;;;;5016649;28;20050;-74
2021/09/28 00:48:48;;;;;;;12.75;5.20;;;12.20;93.40;;;;;;5016338;28;20084;-75
2021/09/28 00:51:15;;;;;;;13.27;5.35;;;12.10;93.50;;;;;;5014898;28;20069;-74
2021/09/28 00:53:42;;;;;;;10.40;4.80;;;12.10;93.50;;;;;;5015212;28;20099;-75
2021/09/28 00:56:10;;;;;;;16.33;5.45;;;12.10;93.50;;;;;;5015242;28;20052;-74
2021/09/28 00:58:37;;;;;;;13.05;5.35;;;12.00;93.50;;;;;;5018330;28;20030;-75
2021/09/28 01:01:04;;;;;;;15.73;4.95;;;12.00;93.50;;;;;;5037146;28;20014;-73
2021/09/28 01:03:33;;;;;;;17.77;5.63;;;12.00;93.50;;;;;;5021985;28;20089;-75
2021/09/28 01:06:00;;;;;;;23.05;5.30;;;12.00;93.40;;;;;;5033642;28;20088;-73
2021/09/28 01:08:26;;;;;;;15.88;5.25;;;12.00;93.50;;;;;;5016692;28;20025;-72
2021/09/28 01:10:52;;;;;;;21.83;6.03;;;12.00;93.50;;;;;;5016092;28;20104;-73
2021/09/28 01:13:18;;;;;;;21.42;5.45;;;12.00;93.50;;;;;;5015268;28;20060;-74
2021/09/28 01:16:16;;;;;;;17.00;6.05;;;12.00;93.50;;;;;;5016110;28;20053;-73
2021/09/28 01:18:43;;;;;;;14.07;5.03;;;12.00;93.50;;;;;;5003961;28;20110;-72
2021/09/28 01:21:14;;;;;;;16.35;5.40;;;12.00;93.50;;;;;;5015950;28;20116;-73
2021/09/28 01:23:46;;;;;;;14.82;5.65;;;12.00;93.60;;;;;;5015742;28;20088;-72
2021/09/28 01:26:13;;;;;;;14.05;5.40;;;12.00;93.70;;;;;;5015857;28;20050;-72
2021/09/28 01:28:40;;;;;;;10.32;4.43;;;11.90;93.60;;;;;;5015039;28;20036;-73
2021/09/28 01:31:05;;;;;;;11.85;4.70;;;11.90;93.50;;;;;;5016753;28;20038;-73
2021/09/28 01:33:31;;;;;;;11.43;4.93;;;11.90;93.50;;;;;;5018958;28;20029;-75
2021/09/28 01:35:56;;;;;;;15.02;5.25;;;11.90;93.50;;;;;;5019383;28;20022;-73
2021/09/28 01:38:22;;;;;;;14.80;5.15;;;11.90;93.80;;;;;;5015832;28;20033;-73
2021/09/28 01:40:48;;;;;;;18.92;6.00;;;11.80;93.60;;;;;;5015214;28;20116;-72
2021/09/28 01:43:14;;;;;;;15.77;5.07;;;11.80;93.60;;;;;;5015427;28;20049;-72
2021/09/28 01:45:42;;;;;;;13.23;4.70;;;11.80;93.60;;;;;;5013894;28;20151;-72
2021/09/28 01:48:08;;;;;;;19.35;5.03;;;11.80;93.80;;;;;;5015098;28;20426;-73
2021/09/28 01:50:35;;;;;;;17.80;4.40;;;11.80;93.90;;;;;;5015678;28;20063;-73
2021/09/28 01:53:01;;;;;;;16.38;5.43;;;11.80;93.90;;;;;;5015306;28;20481;-73
2021/09/28 01:55:27;;;;;;;12.98;4.75;;;11.80;93.90;;;;;;5015271;28;20022;-73
2021/09/28 01:57:56;;;;;;;14.13;4.63;;;11.80;93.90;;;;;;5014394;28;20033;-72
2021/09/28 02:00:23;;;;;;;16.85;5.03;;;11.70;93.80;;;;;;5015268;28;20286;-72
2021/09/28 02:02:49;;;;;;;13.38;4.43;;;11.80;93.80;;;;;;5015136;28;20091;-73
2021/09/28 02:05:14;;;;;;;13.82;3.85;;;11.80;93.80;;;;;;5014791;28;20017;-73
2021/09/28 02:07:40;;;;;;;15.27;4.82;;;11.80;93.80;;;;;;5014769;28;20030;-73
2021/09/28 02:10:06;;;;;;;20.45;5.60;;;11.70;93.80;;;;;;5014756;28;20041;-73
2021/09/28 02:12:33;;;;;;;16.83;4.45;;;11.80;93.80;;;;;;5014811;28;20136;-73
2021/09/28 02:14:58;;;;;;;18.63;4.80;;;11.70;93.80;;;;;;5014586;28;20068;-73
2021/09/28 02:17:24;;;;;;;18.02;4.97;;;11.70;93.80;;;;;;5014890;28;20108;-73
2021/09/28 02:19:49;;;;;;;14.35;4.97;;;11.70;93.80;;;;;;5014481;28;20026;-73
2021/09/28 02:22:15;;;;;;;19.65;4.30;;;11.70;93.80;;;;;;5014791;28;20546;-73
2021/09/28 02:24:41;;;;;;;13.48;4.35;;;11.70;93.80;;;;;;5013462;28;20147;-73
2021/09/28 02:27:06;;;;;;;14.68;4.50;;;11.60;93.80;;;;;;5013258;28;20025;-73
2021/09/28 02:29:33;;;;;;;13.73;5.25;;;11.60;93.80;;;;;;5014250;28;20089;-72
2021/09/28 02:31:59;;;;;;;15.48;4.55;;;11.60;93.70;;;;;;5014324;28;20061;-73
2021/09/28 02:34:24;;;;;;;14.68;4.25;;;11.60;93.80;;;;;;5014609;28;20057;-73
2021/09/28 02:36:50;;;;;;;13.70;4.47;;;11.60;93.90;;;;;;5014181;28;20030;-73
2021/09/28 02:39:16;;;;;;;17.60;5.60;;;11.60;93.90;;;;;;5014498;28;20105;-73
2021/09/28 02:41:41;;;;;;;17.77;5.53;;;11.50;93.90;;;;;;5014218;28;20022;-73
2021/09/28 02:44:07;;;;;;;15.60;4.97;;;11.60;94.00;;;;;;5014021;28;20022;-73
2021/09/28 02:46:33;;;;;;;17.08;5.03;;;11.50;93.90;;;;;;5014195;28;20018;-73
2021/09/28 02:48:59;;;;;;;16.17;4.10;;;11.50;93.90;;;;;;5014973;28;20052;-73
2021/09/28 02:51:25;;;;;;;15.25;4.65;;;11.50;93.90;;;;;;5025295;28;20037;-73
2021/09/28 02:53:50;;;;;;;16.02;4.57;;;11.50;94.00;;;;;;5025259;28;20387;-73
2021/09/28 02:56:16;;;;;;;18.23;5.15;;;11.50;94.00;;;;;;5028156;28;20029;-73
2021/09/28 02:58:41;;;;;;;14.40;4.43;;;11.50;94.00;;;;;;5021636;28;20502;-73
2021/09/28 03:01:07;;;;;;;13.68;4.20;;;11.50;93.90;;;;;;5013489;28;20060;-73
2021/09/28 03:03:33;;;;;;;13.38;4.50;;;11.40;93.90;;;;;;5012722;28;20030;-73
2021/09/28 03:05:58;;;;;;;17.08;4.40;;;11.40;94.10;;;;;;5011767;28;20438;-73
2021/09/28 03:08:24;;;;;;;15.70;4.45;;;11.40;94.10;;;;;;5013904;28;20486;-73
2021/09/28 03:10:50;;;;;;;17.13;4.75;;;11.40;94.20;;;;;;5013461;28;20038;-72
2021/09/28 03:13:15;;;;;;;15.90;5.30;;;11.40;94.20;;;;;;5014531;28;20084;-73
2021/09/28 03:15:41;;;;;;;13.13;4.22;;;11.40;94.10;;;;;;5014804;28;20026;-73
2021/09/28 03:18:07;;;;;;;19.10;4.90;;;11.30;94.30;;;;;;5013569;28;20421;-73
2021/09/28 03:20:32;;;;;;;18.00;4.90;;;11.30;93.90;;;;;;5014167;28;20432;-71
2021/09/28 03:22:58;;;;;;;15.50;4.75;;;11.30;94.00;;;;;;5013126;28;20034;-73
2021/09/28 03:25:24;;;;;;;17.15;5.93;;;11.30;94.20;;;;;;5013545;28;20455;-73
2021/09/28 03:27:50;;;;;;;16.75;5.13;;;11.30;94.30;;;;;;5013409;28;20021;-73
2021/09/28 03:30:16;;;;;;;23.20;4.95;;;11.20;94.30;;;;;;5013237;28;20397;-73
2021/09/28 03:32:42;;;;;;;18.63;4.93;;;11.20;94.30;;;;;;5013552;28;20510;-73
2021/09/28 03:35:09;;;;;;;18.58;5.63;;;11.30;94.30;;;;;;5013654;28;20047;-73
2021/09/28 03:37:37;;;;;;;15.93;4.57;;;11.20;94.30;;;;;;5013208;28;20113;-73
2021/09/28 03:40:04;;;;;;;9.88;4.15;;;11.30;94.40;;;;;;5012697;28;20462;-72
2021/09/28 03:42:30;;;;;;;14.95;4.50;;;11.20;94.30;;;;;;5013871;28;20402;-73
2021/09/28 03:44:55;;;;;;;19.98;5.13;;;11.20;94.30;;;;;;5013509;28;20105;-73
2021/09/28 03:47:21;;;;;;;17.38;4.10;;;11.20;94.40;;;;;;5013307;28;20105;-73
2021/09/28 03:49:47;;;;;;;17.67;4.28;;;11.20;94.30;;;;;;5012931;28;20038;-73
2021/09/28 03:52:12;;;;;;;18.60;3.92;;;11.20;94.30;;;;;;5013077;28;20025;-72
2021/09/28 03:54:38;;;;;;;15.98;5.00;;;11.20;94.30;;;;;;5012765;28;20033;-72
2021/09/28 03:57:04;;;;;;;14.95;4.40;;;11.20;94.30;;;;;;5012938;28;20022;-73
2021/09/28 03:59:29;;;;;;;15.18;4.00;;;11.20;94.30;;;;;;5012538;28;20034;-71
2021/09/28 04:01:55;;;;;;;14.98;4.00;;;11.10;94.30;;;;;;5012849;28;20027;-72
2021/09/28 04:04:20;;;;;;;15.50;4.40;;;11.10;94.30;;;;;;5012572;28;20389;-72
2021/09/28 04:06:46;;;;;;;13.18;4.07;;;11.10;94.30;;;;;;5012860;28;20030;-73
2021/09/28 04:09:12;;;;;;;18.10;5.18;;;11.10;94.30;;;;;;5012341;28;20382;-73
2021/09/28 04:11:37;;;;;;;13.13;4.75;;;11.10;94.40;;;;;;5012798;28;20057;-72
2021/09/28 04:14:03;;;;;;;19.63;4.60;;;11.10;94.40;;;;;;5012800;28;20026;-73
2021/09/28 04:16:30;;;;;;;16.92;4.18;;;11.10;94.40;;;;;;5013183;28;20021;-73
2021/09/28 04:18:55;;;;;;;19.45;3.42;;;11.10;94.40;;;;;;5012826;28;20471;-73
2021/09/28 04:21:21;;;;;;;16.80;3.65;;;11.00;94.40;;;;;;5012725;28;20120;-72
2021/09/28 04:23:49;;;;;;;16.60;4.07;;;11.00;94.40;;;;;;5012718;28;20374;-72
2021/09/28 04:26:16;;;;;;;19.05;3.58;;;11.00;94.40;;;;;;5012693;28;20021;-74
2021/09/28 04:28:43;;;;;;;11.93;3.95;;;11.10;94.40;;;;;;5011315;28;20092;-73
2021/09/28 04:31:12;;;;;;;14.52;4.90;;;11.00;94.40;;;;;;5012447;28;20470;-72
2021/09/28 04:33:37;;;;;;;16.42;4.75;;;11.10;94.40;;;;;;5012785;28;20014;-72
2021/09/28 04:36:03;;;;;;;13.55;4.38;;;11.00;94.40;;;;;;5012701;28;20030;-74
2021/09/28 04:38:29;;;;;;;19.45;3.30;;;11.00;94.40;;;;;;5011498;28;20034;-73
2021/09/28 04:40:55;;;;;;;15.00;3.97;;;11.00;94.40;;;;;;5012120;28;20030;-73
2021/09/28 04:43:20;;;;;;;15.02;3.13;;;11.00;94.40;;;;;;5014719;28;20029;-74
2021/09/28 04:45:46;;;;;;;11.85;2.90;;;11.00;94.40;;;;;;5032972;28;20061;-73
2021/09/28 04:48:11;;;;;;;21.70;4.30;;;10.90;94.40;;;;;;5017349;28;20022;-73
2021/09/28 04:50:37;;;;;;;15.30;3.92;;;10.90;94.40;;;;;;5031151;28;20038;-73
2021/09/28 04:53:03;;;;;;;20.05;3.95;;;10.90;94.40;;;;;;5012410;28;20014;-73
2021/09/28 04:55:28;;;;;;;17.23;3.80;;;10.90;94.40;;;;;;5012273;28;20060;-73
2021/09/28 04:57:55;;;;;;;12.13;3.88;;;10.90;94.40;;;;;;5010876;28;20490;-74
2021/09/28 05:00:20;;;;;;;17.98;3.72;;;10.90;94.50;;;;;;5012464;28;20030;-73
2021/09/28 05:02:46;;;;;;;16.25;4.40;;;10.90;94.50;;;;;;5012227;28;20100;-73
2021/09/28 05:05:12;;;;;;;22.23;3.72;;;10.90;94.50;;;;;;5012349;28;20030;-74
2021/09/28 05:07:37;;;;;;;14.38;4.40;;;10.90;94.50;;;;;;5012126;28;20026;-73
2021/09/28 05:10:04;;;;;;;13.57;3.58;;;10.90;94.50;;;;;;5011736;28;20062;-71
2021/09/28 05:12:29;;;;;;;15.90;3.88;;;10.90;94.50;;;;;;5012505;28;20160;-72
2021/09/28 05:14:57;;;;;;;15.77;4.30;;;10.90;94.50;;;;;;5012384;28;20103;-72
2021/09/28 05:17:23;;;;;;;12.13;4.40;;;10.90;94.50;;;;;;5012559;28;20018;-73
2021/09/28 05:19:49;;;;;;;9.23;3.30;;;10.90;94.50;;;;;;5012676;28;20036;-73
2021/09/28 05:22:14;;;;;;;15.63;4.00;;;10.80;94.50;;;;;;5012151;28;20101;-74
2021/09/28 05:24:40;;;;;;;16.27;4.07;;;10.90;94.60;;;;;;5011929;28;20503;-71
2021/09/28 05:27:06;;;;;;;15.55;3.40;;;10.90;94.50;;;;;;5011880;28;20022;-73
2021/09/28 05:29:32;;;;;;;12.80;3.65;;;10.90;94.50;;;;;;5013810;28;20458;-71
2021/09/28 05:31:58;;;;;;;18.88;3.55;;;10.80;94.50;;;;;;5015965;28;20032;-73
2021/09/28 05:34:24;;;;;;;16.70;3.95;;;10.80;94.50;;;;;;5015942;28;20022;-73
2021/09/28 05:36:50;;;;;;;14.38;3.25;;;10.90;94.50;;;;;;5014378;28;20028;-73
2021/09/28 05:39:15;;;;;;;13.25;3.47;;;10.90;94.40;;;;;;5014141;28;20032;-72
2021/09/28 05:41:41;;;;;;;13.55;3.65;;;10.90;94.40;;;;;;5015435;28;20370;-73
2021/09/28 05:44:07;;;;;;;14.93;3.42;;;10.90;94.50;;;;;;5020436;28;20052;-72
2021/09/28 05:46:32;;;;;;;14.65;4.05;;;10.80;94.50;;;;;;5024395;28;20040;-72
2021/09/28 05:48:58;;;;;;;14.80;3.70;;;10.90;94.50;;;;;;5013604;28;20128;-73
2021/09/28 05:51:27;;;;;;;17.10;4.13;;;10.90;94.50;;;;;;5014028;28;20037;-72
2021/09/28 05:53:53;;;;;;;15.75;3.58;;;10.90;94.50;;;;;;5013928;28;20026;-72
2021/09/28 05:56:19;;;;;;;14.43;3.70;;;11.00;94.60;;;;;;5015965;28;20032;-73
2021/09/28 05:58:44;;;;;;;13.70;3.35;;;11.00;94.60;;;;;;5013969;28;20474;-73
2021/09/28 06:01:10;;;;;;;7.72;2.42;;;11.10;94.60;;;;;;5013855;28;20045;-73
2021/09/28 06:03:36;;;;;;;10.73;2.78;;;11.20;94.60;;;;;;5015254;28;20104;-74
2021/09/28 06:06:01;;;;;;;11.15;3.25;;;11.20;94.50;;;;;;5014849;28;20057;-73
2021/09/28 06:08:28;;;;;;;15.10;3.97;;;11.30;94.40;;;;;;5014788;28;20101;-73
2021/09/28 06:10:53;;;;;;;12.07;3.30;;;11.40;94.20;;;;;;5014277;28;20037;-74
2021/09/28 06:13:19;;;;;;;16.33;4.00;;;11.40;94.10;;;;;;5014872;28;20419;-74
2021/09/28 06:15:45;;;;;;;14.27;3.47;;;11.50;94.10;;;;;;5014983;28;20030;-73
2021/09/28 06:18:10;;;;;;;16.35;3.20;;;11.60;93.90;;;;;;5014680;28;20390;-75
2021/09/28 06:20:36;;;;;;;16.65;3.72;;;11.70;93.80;;;;;;5013893;28;20026;-73
2021/09/28 06:23:02;;;;;;;13.52;2.67;;;11.80;93.70;;;;;;5021496;28;20054;-73
2021/09/28 06:25:28;;;;;;;14.15;3.72;;;11.80;93.40;;;;;;5016299;28;20449;-73
2021/09/28 06:27:53;;;;;;;15.68;3.15;;;11.90;93.20;;;;;;5014644;28;20079;-73
2021/09/28 06:30:19;;;;;;;13.23;2.58;;;12.00;93.20;;;;;;5014190;28;20042;-73
2021/09/28 06:32:44;;;;;;;15.48;2.63;;;12.10;92.90;;;;;;5014494;28;20034;-72
2021/09/28 06:35:11;;;;;;;11.95;3.03;;;12.20;93.00;;;;;;5014685;28;20026;-73
2021/09/28 06:37:37;;;;;;;16.13;3.65;;;12.30;93.00;;;;;;5033993;28;20350;-73
2021/09/28 06:40:03;;;;;;;11.20;2.95;;;12.50;92.50;;;;;;5019266;28;20482;-72
2021/09/28 06:42:29;;;;;;;12.30;3.33;;;12.60;92.20;;;;;;5032597;28;20052;-73
2021/09/28 06:44:55;;;;;;;15.07;3.50;;;12.60;92.20;;;;;;5014556;28;20451;-73
2021/09/28 06:47:21;;;;;;;14.02;3.13;;;12.80;92.40;;;;;;5014405;28;20044;-73
2021/09/28 06:49:46;;;;;;;10.13;2.83;;;12.90;91.90;;;;;;5023506;28;20102;-74
2021/09/28 06:52:12;;;;;;;12.68;3.10;;;12.90;91.80;;;;;;5020334;28;20017;-73
2021/09/28 06:54:38;;;;;;;15.18;2.60;;;13.10;91.70;;;;;;5017797;28;20041;-74
2021/09/28 06:57:04;;;;;;;10.27;2.88;;;13.10;91.10;;;;;;5012945;28;20030;-74
2021/09/28 06:59:30;;;;;;;12.30;2.95;;;13.20;90.80;;;;;;5015213;28;20033;-74
2021/09/28 07:01:55;;;;;;;10.68;2.72;;;13.30;90.80;;;;;;5014187;28;20030;-73
2021/09/28 07:04:21;;;;;;;9.68;2.55;;;13.30;90.80;;;;;;5013711;28;20093;-73
2021/09/28 07:06:47;;;;;;;9.63;2.55;;;13.50;90.70;;;;;;5012701;28;20515;-75
2021/09/28 07:09:12;;;;;;;11.80;3.00;;;13.60;90.30;;;;;;5013373;28;20416;-73
2021/09/28 07:11:38;;;;;;;10.95;3.15;;;13.70;89.70;;;;;;5014234;28;20048;-73
2021/09/28 07:14:04;;;;;;;14.27;3.72;;;13.70;89.60;;;;;;5014337;28;20018;-73
2021/09/28 07:16:29;;;;;;;7.32;2.90;;;13.80;89.60;;;;;;5014061;28;20053;-74
2021/09/28 07:18:55;;;;;;;12.73;2.75;;;13.90;89.50;;;;;;5013960;28;20022;-73
2021/09/28 07:21:21;;;;;;;10.23;3.03;;;14.00;89.00;;;;;;5014471;28;20036;-74
2021/09/28 07:23:46;;;;;;;10.73;2.70;;;14.10;88.60;;;;;;5013972;28;20378;-72
2021/09/28 07:26:12;;;;;;;14.40;2.95;;;14.30;88.60;;;;;;5013181;28;20030;-73
2021/09/28 07:28:39;;;;;;;13.02;3.95;;;14.40;87.60;;;;;;5013214;28;20057;-73
2021/09/28 07:31:06;;;;;;;7.82;2.45;;;14.40;88.10;;;;;;5012962;28;20034;-73
2021/09/28 07:33:32;;;;;;;11.20;3.08;;;14.50;88.90;;;;;;5012919;28;20029;-75
2021/09/28 07:35:58;;;;;;;9.90;2.42;;;14.60;88.40;;;;;;5011832;28;20021;-74
2021/09/28 07:38:24;;;;;;;12.75;3.42;;;14.70;87.60;;;;;;5013475;28;20025;-75
2021/09/28 07:40:50;;;;;;;12.77;3.00;;;14.80;88.20;;;;;;5013400;28;20489;-74
2021/09/28 07:43:17;;;;;;;7.38;2.75;;;14.90;85.60;;;;;;5011659;28;20014;-74
2021/09/28 07:45:43;;;;;;;8.13;3.42;;;15.00;85.70;;;;;;5013219;28;20026;-74
2021/09/28 07:48:09;;;;;;;16.17;3.45;;;15.00;85.80;;;;;;5012650;28;20113;-74
2021/09/28 07:50:35;;;;;;;17.30;3.75;;;15.10;85.50;;;;;;5012783;28;20068;-74
2021/09/28 07:53:01;;;;;;;14.68;3.40;;;15.20;85.00;;;;;;5011379;28;20061;-74
2021/09/28 07:55:27;;;;;;;15.70;3.28;;;15.40;86.10;;;;;;5012958;28;20086;-74
2021/09/28 07:57:54;;;;;;;12.98;3.38;;;15.50;83.30;;;;;;5011710;28;20434;-73
2021/09/28 08:00:19;;;;;;;9.45;3.25;;;15.50;84.10;;;;;;5011402;28;20030;-73
2021/09/28 08:02:45;;;;;;;10.05;2.35;;;15.70;85.20;;;;;;5011637;28;20030;-73
2021/09/28 08:05:11;;;;;;;8.55;2.25;;;15.80;84.90;;;;;;5012566;28;20033;-74
2021/09/28 08:07:40;;;;;;;8.48;2.38;;;16.10;85.00;;;;;;5012690;28;20022;-73
2021/09/28 08:10:11;;;;;;;9.95;2.63;;;16.30;84.40;;;;;;5009690;28;20033;-72
2021/09/28 08:12:37;;;;;;;18.13;3.50;;;16.60;83.30;;;;;;5012323;28;20033;-74
2021/09/28 08:15:04;;;;;;;8.93;2.60;;;16.80;82.10;;;;;;5011786;28;20026;-72
2021/09/28 08:17:30;;;;;;;9.52;2.22;;;17.00;81.10;;;;;;5012423;28;20097;-74
2021/09/28 08:19:57;;;;;;;8.60;2.65;;;17.00;78.80;;;;;;5012094;28;20116;-74
2021/09/28 08:22:23;;;;;;;11.85;2.60;;;17.10;80.00;;;;;;5012225;28;20018;-74
2021/09/28 08:24:54;;;;;;;9.02;2.53;;;17.40;81.80;;;;;;5012265;28;20080;-73
2021/09/28 08:30:07;;;;;;;9.88;2.58;;;17.70;79.60;;;;;;5032549;28;20049;-73
2021/09/28 08:32:33;;;;;;;12.13;2.73;;;17.90;77.20;;;;;;5025164;28;20048;-73
2021/09/28 08:34:59;;;;;;;7.43;2.00;;;17.90;77.70;;;;;;5024047;28;20465;-74
2021/09/28 08:37:26;;;;;;;12.13;2.65;;;18.00;78.20;;;;;;5012155;28;20467;-73
2021/09/28 08:39:56;;;;;;;8.13;1.83;;;18.10;78.40;;;;;;5012344;28;20032;-73
2021/09/28 08:42:23;;;;;;;9.90;2.93;;;18.30;78.50;;;;;;5011861;28;20518;-71
2021/09/28 08:44:49;;;;;;;8.45;2.80;;;18.30;75.30;;;;;;5012108;28;20034;-73
2021/09/28 08:47:15;;;;;;;10.95;2.28;;;18.30;75.30;;;;;;5011989;28;20036;-73
2021/09/28 08:49:41;;;;;;;9.48;2.63;;;18.30;75.90;;;;;;5012428;28;20018;-74
2021/09/28 08:52:08;;;;;;;13.45;3.25;;;18.40;79.00;;;;;;5012083;28;20053;-74
2021/09/28 08:54:33;;;;;;;9.45;2.05;;;18.50;77.00;;;;;;5012215;28;20026;-73
2021/09/28 08:56:59;;;;;;;10.32;2.42;;;18.60;78.70;;;;;;5010851;28;20034;-73
2021/09/28 08:59:48;;;;;;;11.80;3.78;;;18.60;77.60;;;;;;5011719;28;20040;-73
2021/09/28 09:02:14;;;;;;;11.10;2.85;;;18.60;73.80;;;;;;5012330;28;20026;-73
2021/09/28 09:04:42;;;;;;;9.40;2.45;;;18.60;79.30;;;;;;5015021;28;20101;-73
2021/09/28 09:07:25;;;;;;;7.78;1.95;;;18.70;78.30;;;;;;5016104;28;20026;-73
2021/09/28 09:09:51;;;;;;;7.82;2.20;;;18.90;75.60;;;;;;5018618;28;20026;-74
2021/09/28 09:12:31;;;;;;;10.40;2.05;;;19.10;78.60;;;;;;5017319;28;20026;-73
2021/09/28 09:15:18;;;;;;;9.13;1.97;;;19.50;76.20;;;;;;5016236;28;20033;-76
2021/09/28 09:17:45;;;;;;;12.27;3.80;;;19.50;74.10;;;;;;5016442;28;20032;-74
2021/09/28 09:20:34;;;;;;;11.88;3.80;;;19.50;68.70;;;;;;5015432;28;20498;-75
2021/09/28 09:23:14;;;;;;;13.35;4.78;;;19.40;72.50;;;;;;5015218;28;20455;-74
2021/09/28 09:25:40;;;;;;;9.20;2.33;;;19.30;68.80;;;;;;5015702;28;20088;-75
2021/09/28 09:28:31;;;;;;;10.00;2.30;;;19.20;71.30;;;;;;5015223;28;20030;-74
2021/09/28 09:31:14;;;;;;;12.13;2.97;;;19.10;72.90;;;;;;5015479;28;20490;-74
2021/09/28 09:33:42;;;;;;;9.38;2.15;;;19.30;77.50;;;;;;5015178;28;20025;-74
2021/09/28 09:36:08;;;;;;;7.43;2.45;;;19.60;77.70;;;;;;5014057;28;20102;-76
2021/09/28 09:38:47;;;;;;;6.97;2.00;;;19.80;74.30;;;;;;5015540;28;20105;-73
2021/09/28 09:41:13;;;;;;;7.60;2.13;;;20.10;76.60;;;;;;5015530;28;20517;-73
2021/09/28 09:43:40;;;;;;;9.95;2.70;;;20.30;76.70;;;;;;5015621;28;20030;-76
2021/09/28 09:46:10;;;;;;;7.40;2.10;;;20.50;77.00;;;;;;5015111;28;20054;-75
2021/09/28 09:48:36;;;;;;;6.07;1.98;;;20.50;75.70;;;;;;5014148;28;20088;-75
2021/09/28 09:51:07;;;;;;;6.85;1.45;;;20.50;76.00;;;;;;5013806;28;20399;-75
2021/09/28 09:53:35;;;;;;;12.50;2.53;;;20.50;77.60;;;;;;5013807;28;20021;-75
2021/09/28 09:56:02;;;;;;;8.60;2.33;;;20.70;75.20;;;;;;5015103;28;20065;-77
2021/09/28 09:58:28;;;;;;;9.20;2.35;;;20.70;68.80;;;;;;5013295;28;20084;-74
2021/09/28 10:00:54;;;;;;;8.65;2.53;;;20.70;70.40;;;;;;5015343;28;20114;-74
2021/09/28 10:03:21;;;;;;;7.82;2.17;;;20.60;71.20;;;;;;5013557;28;20109;-76
2021/09/28 10:05:47;;;;;;;10.60;2.08;;;20.60;74.40;;;;;;5015024;28;20021;-73
2021/09/28 10:08:14;;;;;;;9.20;2.22;;;20.70;72.40;;;;;;5014636;28;20030;-73
2021/09/28 10:10:43;;;;;;;7.10;2.40;;;20.90;69.20;;;;;;5014488;28;20418;-75
2021/09/28 10:13:44;;;;;;;9.67;1.60;;;21.10;70.60;;;;;;5014991;28;20033;-74
2021/09/28 10:16:37;;;;;;;10.85;1.95;;;21.30;73.30;;;;;;5014566;28;20284;-74
2021/09/28 10:19:24;;;;;;;8.73;1.73;;;21.40;71.30;;;;;;5016087;28;20157;-74
2021/09/28 10:21:50;;;;;;;8.88;2.05;;;21.60;73.00;;;;;;5017481;28;20445;-74
2021/09/28 10:24:18;;;;;;;11.68;2.05;;;21.70;72.30;;;;;;5018059;28;20022;-74
2021/09/28 10:26:45;;;;;;;7.57;1.80;;;21.80;73.60;;;;;;5016545;28;20068;-74
2021/09/28 10:29:39;;;;;;;11.15;2.33;;;21.80;73.00;;;;;;5013206;28;20018;-74
2021/09/28 10:32:26;;;;;;;13.60;2.58;;;21.80;65.80;;;;;;5014356;28;20034;-74
2021/09/28 10:35:09;;;;;;;14.35;2.50;;;21.70;62.20;;;;;;5014063;28;20045;-74
2021/09/28 10:37:50;;;;;;;10.85;2.83;;;21.70;63.10;;;;;;5014121;28;20029;-73
2021/09/28 10:40:21;;;;;;;14.60;3.20;;;21.80;60.90;;;;;;5012888;28;20072;-74
2021/09/28 10:42:51;;;;;;;15.10;2.95;;;21.90;61.40;;;;;;5014508;28;20026;-73
2021/09/28 10:45:42;;;;;;;12.00;2.07;;;22.00;62.00;;;;;;5014140;28;20021;-74
2021/09/28 10:48:36;;;;;;;14.32;2.47;;;21.70;64.20;;;;;;5009676;28;20037;-74
2021/09/28 10:51:31;;;;;;;13.35;2.53;;;21.70;63.80;;;;;;5014270;28;20052;-74
2021/09/28 10:54:04;;;;;;;16.00;2.33;;;22.00;62.00;;;;;;5009181;28;20034;-75
2021/09/28 10:56:31;;;;;;;12.88;3.10;;;22.20;63.50;;;;;;5014233;28;20033;-74
2021/09/28 10:59:01;;;;;;;15.65;2.45;;;22.20;61.90;;;;;;5014966;28;20033;-74
2021/09/28 11:01:29;;;;;;;8.25;1.90;;;22.20;62.00;;;;;;5021437;28;20041;-72
2021/09/28 11:04:03;;;;;;;9.65;2.08;;;22.20;64.80;;;;;;5021666;28;20026;-75
2021/09/28 11:06:51;;;;;;;15.73;3.22;;;22.30;69.40;;;;;;5012925;28;20053;-73
2021/09/28 11:09:19;;;;;;;13.88;2.70;;;22.30;59.90;;;;;;5013717;28;20037;-73
2021/09/28 11:11:51;;;;;;;7.13;1.58;;;22.10;71.10;;;;;;5014070;28;20030;-75
2021/09/28 11:14:18;;;;;;;9.70;2.00;;;22.20;71.20;;;;;;5014821;28;20022;-72
2021/09/28 11:16:50;;;;;;;13.13;2.78;;;22.30;68.20;;;;;;5014381;28;20025;-73
2021/09/28 11:19:16;;;;;;;9.10;1.77;;;22.50;68.50;;;;;;5013943;28;20025;-74
2021/09/28 11:21:45;;;;;;;10.32;2.47;;;22.80;67.30;;;;;;5013423;28;20051;-74
2021/09/28 11:24:12;;;;;;;9.02;1.92;;;22.90;72.90;;;;;;5013167;28;20418;-74
2021/09/28 11:26:42;;;;;;;10.07;1.92;;;22.90;67.80;;;;;;5012909;28;20101;-74
2021/09/28 11:29:13;;;;;;;8.07;1.92;;;22.90;64.90;;;;;;5013593;28;20091;-74
2021/09/28 11:31:41;;;;;;;12.07;1.92;;;23.00;67.10;;;;;;5013251;28;20033;-72
2021/09/28 11:34:07;;;;;;;13.15;1.98;;;23.10;73.70;;;;;;5013380;28;20064;-74
2021/09/28 11:36:38;;;;;;;8.57;2.13;;;23.30;67.10;;;;;;5013035;28;20042;-73
2021/09/28 11:39:06;;;;;;;10.50;2.10;;;23.30;70.60;;;;;;5013342;28;20033;-71
2021/09/28 11:41:36;;;;;;;10.48;1.95;;;23.30;71.00;;;;;;5012971;28;20030;-72
2021/09/28 11:44:03;;;;;;;8.93;2.05;;;23.30;73.90;;;;;;5012947;28;20018;-72
2021/09/28 11:46:31;;;;;;;7.97;1.88;;;23.40;68.10;;;;;;5011691;28;20026;-73
2021/09/28 11:49:07;;;;;;;10.93;2.47;;;23.40;65.60;;;;;;5012615;28;20053;-73
2021/09/28 11:51:42;;;;;;;11.30;1.77;;;23.50;63.70;;;;;;5011414;28;20030;-73
2021/09/28 11:54:12;;;;;;;5.70;1.67;;;23.60;68.70;;;;;;5013090;28;20026;-73
2021/09/28 11:56:40;;;;;;;7.50;1.92;;;23.80;66.10;;;;;;5013225;28;20029;-73
2021/09/28 11:59:13;;;;;;;8.98;1.80;;;23.90;62.60;;;;;;5012959;28;20041;-73
2021/09/28 12:01:41;;;;;;;9.05;1.80;;;23.90;70.70;;;;;;5012799;28;20022;-72
2021/09/28 12:07:02;;;;;;;8.18;1.65;;;23.90;68.10;;;;;;5015072;28;20065;-73
2021/09/28 12:09:51;;;;;;;8.38;1.70;;;23.60;72.60;;;;;;5013658;28;20018;-74
2021/09/28 12:12:21;;;;;;;9.88;1.67;;;23.40;66.10;;;;;;5017309;28;20033;-75
2021/09/28 12:14:51;;;;;;;10.02;1.88;;;23.40;70.30;;;;;;5012857;28;20018;-74
2021/09/28 12:17:30;;;;;;;9.30;1.58;;;23.50;72.00;;;;;;5018295;28;20098;-74
2021/09/28 12:20:00;;;;;;;7.60;1.50;;;23.70;74.10;;;;;;5013412;28;20171;-74
2021/09/28 12:22:28;;;;;;;8.90;1.60;;;23.90;70.90;;;;;;5011510;28;20045;-73
2021/09/28 12:24:54;;;;;;;8.90;1.77;;;24.10;70.00;;;;;;5012810;28;20033;-74
2021/09/28 12:27:23;;;;;;;6.97;1.30;;;24.20;71.40;;;;;;5012299;28;20030;-75
2021/09/28 12:29:51;;;;;;;6.18;1.55;;;24.30;70.40;;;;;;5012257;28;20403;-75
2021/09/28 12:32:32;;;;;;;6.38;1.00;;;24.30;69.50;;;;;;5011158;28;20030;-74
2021/09/28 12:35:01;;;;;;;9.00;1.58;;;24.00;67.20;;;;;;5012678;28;20026;-74
2021/09/28 12:37:29;;;;;;;10.93;1.65;;;23.60;68.30;;;;;;5011237;28;20072;-75
2021/09/28 12:40:00;;;;;;;8.02;1.98;;;23.30;69.90;;;;;;5016623;28;20022;-74
2021/09/28 12:42:26;;;;;;;7.75;1.67;;;23.40;69.60;;;;;;5016573;28;20033;-74
2021/09/28 12:45:01;;;;;;;9.43;1.52;;;23.50;77.20;;;;;;5015417;28;20051;-75
2021/09/28 12:47:39;;;;;;;5.80;1.50;;;23.50;74.30;;;;;;5018283;28;20045;-74
2021/09/28 12:50:25;;;;;;;7.20;1.33;;;23.40;74.00;;;;;;5022225;28;20018;-74